sensor_id;sensor_type;location;lat;lon;timestamp;P1;durP1;ratioP1;P2;durP2;ratioP2
45338;SDS011;31071;51.478;5.710;2023-04-01T00:01:03;14.75;;;2.88;;
45338;SDS011;31071;51.478;5.710;2023-04-01T00:03:30;8.05;;;2.35;;
45338;SDS011;31071;51.478;5.710;2023-04-01T00:05:57;6.43;;;2.47;;
45338;SDS011;31071;51.478;5.710;2023-04-01T00:08:24;5.63;;;2.08;;
45338;SDS011;31071;51.478;5.710;2023-04-01T00:10:51;8.40;;;2.50;;
45338;SDS011;31071;51.478;5.710;2023-04-01T00:13:17;7.68;;;2.50;;
45338;SDS011;31071;51.478;5.710;2023-04-01T00:15:43;9.98;;;2.53;;
45338;SDS011;31071;51.478;5.710;2023-04-01T00:18:09;12.18;;;2.45;;
45338;SDS011;31071;51.478;5.710;2023-04-01T00:20:36;8.80;;;2.42;;
45338;SDS011;31071;51.478;5.710;2023-04-01T00:23:02;10.77;;;2.60;;
45338;SDS011;31071;51.478;5.710;2023-04-01T00:25:29;6.40;;;2.83;;
45338;SDS011;31071;51.478;5.710;2023-04-01T00:27:56;9.27;;;2.40;;
45338;SDS011;31071;51.478;5.710;2023-04-01T00:30:21;6.85;;;2.95;;
45338;SDS011;31071;51.478;5.710;2023-04-01T00:32:50;8.00;;;2.65;;
45338;SDS011;31071;51.478;5.710;2023-04-01T00:35:17;6.35;;;2.55;;
45338;SDS011;31071;51.478;5.710;2023-04-01T00:37:42;5.57;;;2.67;;
45338;SDS011;31071;51.478;5.710;2023-04-01T00:40:11;9.93;;;2.85;;
45338;SDS011;31071;51.478;5.710;2023-04-01T00:42:55;9.68;;;2.72;;
45338;SDS011;31071;51.478;5.710;2023-04-01T00:47:58;9.27;;;2.35;;
45338;SDS011;31071;51.478;5.710;2023-04-01T00:50:27;4.65;;;2.20;;
45338;SDS011;31071;51.478;5.710;2023-04-01T00:52:55;8.65;;;2.72;;
45338;SDS011;31071;51.478;5.710;2023-04-01T00:55:21;6.72;;;2.08;;
45338;SDS011;31071;51.478;5.710;2023-04-01T00:57:47;2.70;;;1.92;;
45338;SDS011;31071;51.478;5.710;2023-04-01T01:00:15;2.97;;;1.83;;
45338;SDS011;31071;51.478;5.710;2023-04-01T01:02:42;7.00;;;2.10;;
45338;SDS011;31071;51.478;5.710;2023-04-01T01:05:13;3.90;;;2.20;;
45338;SDS011;31071;51.478;5.710;2023-04-01T01:13:17;5.30;;;2.50;;
45338;SDS011;31071;51.478;5.710;2023-04-01T01:16:02;6.65;;;2.17;;
45338;SDS011;31071;51.478;5.710;2023-04-01T01:21:27;6.47;;;2.20;;
45338;SDS011;31071;51.478;5.710;2023-04-01T01:27:14;6.75;;;2.17;;
45338;SDS011;31071;51.478;5.710;2023-04-01T01:29:54;5.28;;;1.92;;
45338;SDS011;31071;51.478;5.710;2023-04-01T01:32:39;2.60;;;1.55;;
45338;SDS011;31071;51.478;5.710;2023-04-01T01:35:26;4.05;;;1.75;;
45338;SDS011;31071;51.478;5.710;2023-04-01T01:38:00;5.28;;;1.60;;
45338;SDS011;31071;51.478;5.710;2023-04-01T01:40:48;5.07;;;1.80;;
45338;SDS011;31071;51.478;5.710;2023-04-01T01:43:20;3.45;;;1.40;;
45338;SDS011;31071;51.478;5.710;2023-04-01T01:45:51;6.28;;;1.90;;
45338;SDS011;31071;51.478;5.710;2023-04-01T01:48:20;5.35;;;1.85;;
45338;SDS011;31071;51.478;5.710;2023-04-01T01:50:46;5.45;;;1.70;;
45338;SDS011;31071;51.478;5.710;2023-04-01T01:53:14;4.90;;;2.00;;
45338;SDS011;31071;51.478;5.710;2023-04-01T01:55:41;4.85;;;2.05;;
45338;SDS011;31071;51.478;5.710;2023-04-01T01:58:19;3.83;;;2.22;;
45338;SDS011;31071;51.478;5.710;2023-04-01T02:00:50;4.30;;;2.13;;
45338;SDS011;31071;51.478;5.710;2023-04-01T02:03:22;6.53;;;2.95;;
45338;SDS011;31071;51.478;5.710;2023-04-01T02:05:50;4.47;;;2.70;;
45338;SDS011;31071;51.478;5.710;2023-04-01T02:08:21;4.13;;;3.13;;
45338;SDS011;31071;51.478;5.710;2023-04-01T02:10:59;4.53;;;2.90;;
45338;SDS011;31071;51.478;5.710;2023-04-01T02:13:38;4.93;;;2.92;;
45338;SDS011;31071;51.478;5.710;2023-04-01T02:16:15;6.30;;;3.85;;
45338;SDS011;31071;51.478;5.710;2023-04-01T02:18:46;6.57;;;3.88;;
45338;SDS011;31071;51.478;5.710;2023-04-01T02:21:15;4.63;;;3.47;;
45338;SDS011;31071;51.478;5.710;2023-04-01T02:23:44;6.28;;;4.18;;
45338;SDS011;31071;51.478;5.710;2023-04-01T02:26:11;6.57;;;4.13;;
45338;SDS011;31071;51.478;5.710;2023-04-01T02:28:38;5.68;;;4.43;;
45338;SDS011;31071;51.478;5.710;2023-04-01T02:31:05;9.25;;;5.50;;
45338;SDS011;31071;51.478;5.710;2023-04-01T02:33:33;7.80;;;5.60;;
45338;SDS011;31071;51.478;5.710;2023-04-01T02:35:59;9.73;;;5.63;;
45338;SDS011;31071;51.478;5.710;2023-04-01T02:38:25;7.25;;;5.82;;
45338;SDS011;31071;51.478;5.710;2023-04-01T02:40:52;10.93;;;6.43;;
45338;SDS011;31071;51.478;5.710;2023-04-01T02:43:23;10.57;;;6.65;;
45338;SDS011;31071;51.478;5.710;2023-04-01T02:45:48;15.20;;;8.55;;
45338;SDS011;31071;51.478;5.710;2023-04-01T02:48:14;15.50;;;8.18;;
45338;SDS011;31071;51.478;5.710;2023-04-01T02:50:39;13.20;;;8.18;;
45338;SDS011;31071;51.478;5.710;2023-04-01T02:53:05;13.50;;;8.80;;
45338;SDS011;31071;51.478;5.710;2023-04-01T02:55:31;14.00;;;8.95;;
45338;SDS011;31071;51.478;5.710;2023-04-01T02:57:57;13.55;;;9.75;;
45338;SDS011;31071;51.478;5.710;2023-04-01T03:00:22;17.20;;;8.98;;
45338;SDS011;31071;51.478;5.710;2023-04-01T03:02:48;14.95;;;9.90;;
45338;SDS011;31071;51.478;5.710;2023-04-01T03:05:14;16.65;;;10.00;;
45338;SDS011;31071;51.478;5.710;2023-04-01T03:07:40;18.33;;;10.80;;
45338;SDS011;31071;51.478;5.710;2023-04-01T03:10:06;19.33;;;10.65;;
45338;SDS011;31071;51.478;5.710;2023-04-01T03:12:32;14.38;;;9.70;;
45338;SDS011;31071;51.478;5.710;2023-04-01T03:14:57;15.90;;;10.02;;
45338;SDS011;31071;51.478;5.710;2023-04-01T03:17:23;15.95;;;9.80;;
45338;SDS011;31071;51.478;5.710;2023-04-01T03:19:48;19.02;;;9.40;;
45338;SDS011;31071;51.478;5.710;2023-04-01T03:22:14;12.95;;;8.50;;
45338;SDS011;31071;51.478;5.710;2023-04-01T03:24:40;16.23;;;9.27;;
45338;SDS011;31071;51.478;5.710;2023-04-01T03:27:05;13.25;;;9.30;;
45338;SDS011;31071;51.478;5.710;2023-04-01T03:29:31;12.30;;;9.30;;
45338;SDS011;31071;51.478;5.710;2023-04-01T03:31:56;14.25;;;9.57;;
45338;SDS011;31071;51.478;5.710;2023-04-01T03:34:24;14.50;;;10.02;;
45338;SDS011;31071;51.478;5.710;2023-04-01T03:36:50;16.65;;;10.20;;
45338;SDS011;31071;51.478;5.710;2023-04-01T03:39:16;21.55;;;10.25;;
45338;SDS011;31071;51.478;5.710;2023-04-01T03:41:43;16.15;;;9.63;;
45338;SDS011;31071;51.478;5.710;2023-04-01T03:44:10;18.48;;;10.10;;
45338;SDS011;31071;51.478;5.710;2023-04-01T03:46:36;15.00;;;10.60;;
45338;SDS011;31071;51.478;5.710;2023-04-01T03:49:01;15.88;;;11.00;;
45338;SDS011;31071;51.478;5.710;2023-04-01T03:51:27;18.02;;;11.60;;
45338;SDS011;31071;51.478;5.710;2023-04-01T03:53:53;17.55;;;11.35;;
45338;SDS011;31071;51.478;5.710;2023-04-01T03:56:18;17.35;;;11.05;;
45338;SDS011;31071;51.478;5.710;2023-04-01T03:58:44;17.60;;;11.43;;
45338;SDS011;31071;51.478;5.710;2023-04-01T04:01:20;15.80;;;11.30;;
45338;SDS011;31071;51.478;5.710;2023-04-01T04:03:46;16.02;;;10.80;;
45338;SDS011;31071;51.478;5.710;2023-04-01T04:06:14;19.95;;;10.80;;
45338;SDS011;31071;51.478;5.710;2023-04-01T04:08:40;14.90;;;10.27;;
45338;SDS011;31071;51.478;5.710;2023-04-01T04:11:05;14.95;;;10.57;;
45338;SDS011;31071;51.478;5.710;2023-04-01T04:13:31;17.65;;;10.55;;
45338;SDS011;31071;51.478;5.710;2023-04-01T04:15:57;14.68;;;9.70;;
45338;SDS011;31071;51.478;5.710;2023-04-01T04:18:23;17.83;;;10.35;;
45338;SDS011;31071;51.478;5.710;2023-04-01T04:20:49;15.15;;;10.18;;
45338;SDS011;31071;51.478;5.710;2023-04-01T04:23:16;15.50;;;10.52;;
45338;SDS011;31071;51.478;5.710;2023-04-01T04:25:52;15.75;;;10.20;;
45338;SDS011;31071;51.478;5.710;2023-04-01T04:28:26;16.27;;;10.32;;
45338;SDS011;31071;51.478;5.710;2023-04-01T04:30:52;13.90;;;9.38;;
45338;SDS011;31071;51.478;5.710;2023-04-01T04:33:18;14.85;;;10.30;;
45338;SDS011;31071;51.478;5.710;2023-04-01T04:35:44;14.73;;;9.43;;
45338;SDS011;31071;51.478;5.710;2023-04-01T04:38:10;14.85;;;10.07;;
45338;SDS011;31071;51.478;5.710;2023-04-01T04:40:36;15.02;;;9.60;;
45338;SDS011;31071;51.478;5.710;2023-04-01T04:43:03;17.70;;;11.40;;
45338;SDS011;31071;51.478;5.710;2023-04-01T04:45:28;18.15;;;11.07;;
45338;SDS011;31071;51.478;5.710;2023-04-01T04:47:55;16.50;;;11.13;;
45338;SDS011;31071;51.478;5.710;2023-04-01T04:50:20;19.38;;;11.00;;
45338;SDS011;31071;51.478;5.710;2023-04-01T04:52:46;15.98;;;10.25;;
45338;SDS011;31071;51.478;5.710;2023-04-01T04:55:12;19.10;;;11.93;;
45338;SDS011;31071;51.478;5.710;2023-04-01T04:57:37;15.93;;;10.60;;
45338;SDS011;31071;51.478;5.710;2023-04-01T05:00:03;17.90;;;10.45;;
45338;SDS011;31071;51.478;5.710;2023-04-01T05:02:29;18.23;;;10.18;;
45338;SDS011;31071;51.478;5.710;2023-04-01T05:04:55;18.85;;;10.77;;
45338;SDS011;31071;51.478;5.710;2023-04-01T05:07:21;16.85;;;9.63;;
45338;SDS011;31071;51.478;5.710;2023-04-01T05:09:46;17.40;;;9.98;;
45338;SDS011;31071;51.478;5.710;2023-04-01T05:12:12;17.48;;;10.25;;
45338;SDS011;31071;51.478;5.710;2023-04-01T05:14:38;17.17;;;9.52;;
45338;SDS011;31071;51.478;5.710;2023-04-01T05:17:04;18.70;;;9.65;;
45338;SDS011;31071;51.478;5.710;2023-04-01T05:19:34;15.23;;;10.07;;
45338;SDS011;31071;51.478;5.710;2023-04-01T05:22:00;13.90;;;9.38;;
45338;SDS011;31071;51.478;5.710;2023-04-01T05:24:25;14.82;;;9.25;;
45338;SDS011;31071;51.478;5.710;2023-04-01T05:26:51;16.65;;;9.60;;
45338;SDS011;31071;51.478;5.710;2023-04-01T05:29:16;17.17;;;10.60;;
45338;SDS011;31071;51.478;5.710;2023-04-01T05:31:42;14.60;;;8.93;;
45338;SDS011;31071;51.478;5.710;2023-04-01T05:34:07;12.18;;;8.57;;
45338;SDS011;31071;51.478;5.710;2023-04-01T05:36:33;13.27;;;8.13;;
45338;SDS011;31071;51.478;5.710;2023-04-01T05:38:59;12.02;;;7.20;;
45338;SDS011;31071;51.478;5.710;2023-04-01T05:41:24;11.13;;;7.00;;
45338;SDS011;31071;51.478;5.710;2023-04-01T05:43:50;11.25;;;7.35;;
45338;SDS011;31071;51.478;5.710;2023-04-01T05:46:15;13.18;;;7.65;;
45338;SDS011;31071;51.478;5.710;2023-04-01T05:48:41;12.05;;;7.47;;
45338;SDS011;31071;51.478;5.710;2023-04-01T05:51:11;10.30;;;7.47;;
45338;SDS011;31071;51.478;5.710;2023-04-01T05:53:40;12.40;;;7.75;;
45338;SDS011;31071;51.478;5.710;2023-04-01T05:56:06;10.93;;;7.07;;
45338;SDS011;31071;51.478;5.710;2023-04-01T05:58:34;11.27;;;7.50;;
45338;SDS011;31071;51.478;5.710;2023-04-01T06:01:01;11.65;;;6.80;;
45338;SDS011;31071;51.478;5.710;2023-04-01T06:03:28;10.35;;;6.80;;
45338;SDS011;31071;51.478;5.710;2023-04-01T06:05:54;9.43;;;5.57;;
45338;SDS011;31071;51.478;5.710;2023-04-01T06:08:19;9.05;;;6.13;;
45338;SDS011;31071;51.478;5.710;2023-04-01T06:13:32;9.65;;;5.53;;
45338;SDS011;31071;51.478;5.710;2023-04-01T06:19:02;10.10;;;6.57;;
45338;SDS011;31071;51.478;5.710;2023-04-01T06:21:52;10.80;;;6.63;;
45338;SDS011;31071;51.478;5.710;2023-04-01T06:24:48;11.15;;;6.38;;
45338;SDS011;31071;51.478;5.710;2023-04-01T06:30:16;11.98;;;7.40;;
45338;SDS011;31071;51.478;5.710;2023-04-01T06:44:35;14.65;;;8.48;;
45338;SDS011;31071;51.478;5.710;2023-04-01T06:47:42;15.93;;;8.80;;
45338;SDS011;31071;51.478;5.710;2023-04-01T06:50:30;15.20;;;8.10;;
45338;SDS011;31071;51.478;5.710;2023-04-01T06:53:21;15.45;;;8.57;;
45338;SDS011;31071;51.478;5.710;2023-04-01T06:56:02;15.88;;;8.48;;
45338;SDS011;31071;51.478;5.710;2023-04-01T06:58:36;15.48;;;7.80;;
45338;SDS011;31071;51.478;5.710;2023-04-01T07:01:08;15.40;;;8.55;;
45338;SDS011;31071;51.478;5.710;2023-04-01T07:03:40;15.25;;;8.68;;
45338;SDS011;31071;51.478;5.710;2023-04-01T07:06:32;17.27;;;9.50;;
45338;SDS011;31071;51.478;5.710;2023-04-01T07:09:05;20.20;;;9.77;;
45338;SDS011;31071;51.478;5.710;2023-04-01T07:11:35;19.48;;;9.88;;
45338;SDS011;31071;51.478;5.710;2023-04-01T07:16:58;26.15;;;11.45;;
45338;SDS011;31071;51.478;5.710;2023-04-01T07:24:55;30.42;;;14.98;;
45338;SDS011;31071;51.478;5.710;2023-04-01T07:27:22;26.75;;;14.07;;
45338;SDS011;31071;51.478;5.710;2023-04-01T07:29:48;29.30;;;15.52;;
45338;SDS011;31071;51.478;5.710;2023-04-01T07:32:20;33.35;;;16.42;;
45338;SDS011;31071;51.478;5.710;2023-04-01T07:40:24;35.63;;;17.65;;
45338;SDS011;31071;51.478;5.710;2023-04-01T07:59:11;37.28;;;20.67;;
45338;SDS011;31071;51.478;5.710;2023-04-01T08:02:21;38.63;;;20.73;;
45338;SDS011;31071;51.478;5.710;2023-04-01T08:05:26;42.15;;;21.08;;
45338;SDS011;31071;51.478;5.710;2023-04-01T08:13:53;44.47;;;23.58;;
45338;SDS011;31071;51.478;5.710;2023-04-01T08:20:07;42.55;;;23.02;;
45338;SDS011;31071;51.478;5.710;2023-04-01T08:22:51;48.13;;;23.73;;
45338;SDS011;31071;51.478;5.710;2023-04-01T08:25:27;45.72;;;23.45;;
45338;SDS011;31071;51.478;5.710;2023-04-01T08:28:08;46.80;;;24.45;;
45338;SDS011;31071;51.478;5.710;2023-04-01T08:30:49;40.83;;;23.63;;
45338;SDS011;31071;51.478;5.710;2023-04-01T08:33:21;40.00;;;23.23;;
45338;SDS011;31071;51.478;5.710;2023-04-01T08:38:44;40.30;;;24.40;;
45338;SDS011;31071;51.478;5.710;2023-04-01T08:46:46;33.15;;;20.60;;
45338;SDS011;31071;51.478;5.710;2023-04-01T08:49:50;36.08;;;20.80;;
45338;SDS011;31071;51.478;5.710;2023-04-01T09:00:53;38.92;;;20.95;;
45338;SDS011;31071;51.478;5.710;2023-04-01T09:06:24;41.92;;;22.88;;
45338;SDS011;31071;51.478;5.710;2023-04-01T09:09:15;42.85;;;21.67;;
45338;SDS011;31071;51.478;5.710;2023-04-01T09:11:58;44.17;;;23.25;;
45338;SDS011;31071;51.478;5.710;2023-04-01T09:14:33;42.88;;;22.88;;
45338;SDS011;31071;51.478;5.710;2023-04-01T09:17:37;37.45;;;21.45;;
45338;SDS011;31071;51.478;5.710;2023-04-01T09:20:38;39.35;;;22.40;;
45338;SDS011;31071;51.478;5.710;2023-04-01T09:23:27;37.92;;;21.98;;
45338;SDS011;31071;51.478;5.710;2023-04-01T09:37:00;29.63;;;18.08;;
45338;SDS011;31071;51.478;5.710;2023-04-01T09:39:36;26.80;;;17.85;;
45338;SDS011;31071;51.478;5.710;2023-04-01T09:42:07;27.83;;;17.92;;
45338;SDS011;31071;51.478;5.710;2023-04-01T09:45:00;29.52;;;18.60;;
45338;SDS011;31071;51.478;5.710;2023-04-01T10:13:35;14.57;;;12.63;;
45338;SDS011;31071;51.478;5.710;2023-04-01T10:19:38;13.55;;;10.63;;
45338;SDS011;31071;51.478;5.710;2023-04-01T10:36:41;17.08;;;13.55;;
45338;SDS011;31071;51.478;5.710;2023-04-01T10:39:46;17.70;;;13.02;;
45338;SDS011;31071;51.478;5.710;2023-04-01T10:45:13;18.98;;;14.45;;
45338;SDS011;31071;51.478;5.710;2023-04-01T10:48:05;19.13;;;14.25;;
45338;SDS011;31071;51.478;5.710;2023-04-01T10:53:49;19.58;;;15.20;;
45338;SDS011;31071;51.478;5.710;2023-04-01T10:56:36;21.25;;;14.18;;
45338;SDS011;31071;51.478;5.710;2023-04-01T10:59:28;21.05;;;15.27;;
45338;SDS011;31071;51.478;5.710;2023-04-01T11:28:08;25.73;;;17.00;;
45338;SDS011;31071;51.478;5.710;2023-04-01T11:36:59;29.08;;;18.33;;
45338;SDS011;31071;51.478;5.710;2023-04-01T11:39:47;31.98;;;18.20;;
45338;SDS011;31071;51.478;5.710;2023-04-01T11:42:41;26.35;;;18.02;;
45338;SDS011;31071;51.478;5.710;2023-04-01T11:45:39;29.88;;;18.85;;
45338;SDS011;31071;51.478;5.710;2023-04-01T11:48:32;27.73;;;18.35;;
45338;SDS011;31071;51.478;5.710;2023-04-01T12:08:09;26.98;;;17.10;;
45338;SDS011;31071;51.478;5.710;2023-04-01T12:11:00;27.77;;;17.85;;
45338;SDS011;31071;51.478;5.710;2023-04-01T12:30:51;20.60;;;13.55;;
45338;SDS011;31071;51.478;5.710;2023-04-01T12:42:10;14.77;;;11.32;;
45338;SDS011;31071;51.478;5.710;2023-04-01T12:47:56;14.20;;;10.10;;
45338;SDS011;31071;51.478;5.710;2023-04-01T12:50:57;12.15;;;9.50;;
45338;SDS011;31071;51.478;5.710;2023-04-01T13:01:52;12.55;;;9.68;;
45338;SDS011;31071;51.478;5.710;2023-04-01T13:04:45;12.00;;;10.43;;
45338;SDS011;31071;51.478;5.710;2023-04-01T13:10:13;14.40;;;10.50;;
45338;SDS011;31071;51.478;5.710;2023-04-01T13:15:51;12.25;;;10.45;;
45338;SDS011;31071;51.478;5.710;2023-04-01T13:18:37;12.85;;;11.35;;
45338;SDS011;31071;51.478;5.710;2023-04-01T13:21:19;14.05;;;10.93;;
45338;SDS011;31071;51.478;5.710;2023-04-01T13:24:07;16.05;;;11.63;;
45338;SDS011;31071;51.478;5.710;2023-04-01T13:32:04;18.48;;;12.82;;
45338;SDS011;31071;51.478;5.710;2023-04-01T13:34:55;16.63;;;13.52;;
45338;SDS011;31071;51.478;5.710;2023-04-01T13:42:54;20.02;;;13.23;;
45338;SDS011;31071;51.478;5.710;2023-04-01T13:45:35;18.95;;;13.55;;
45338;SDS011;31071;51.478;5.710;2023-04-01T13:48:23;16.90;;;12.65;;
45338;SDS011;31071;51.478;5.710;2023-04-01T13:59:59;18.45;;;13.15;;
45338;SDS011;31071;51.478;5.710;2023-04-01T14:17:37;19.15;;;12.77;;
45338;SDS011;31071;51.478;5.710;2023-04-01T14:26:07;20.77;;;13.88;;
45338;SDS011;31071;51.478;5.710;2023-04-01T14:29:46;19.10;;;12.73;;
45338;SDS011;31071;51.478;5.710;2023-04-01T14:31:54;18.30;;;12.65;;
45338;SDS011;31071;51.478;5.710;2023-04-01T14:34:53;17.88;;;13.38;;
45338;SDS011;31071;51.478;5.710;2023-04-01T14:37:56;19.20;;;13.90;;
45338;SDS011;31071;51.478;5.710;2023-04-01T14:40:40;17.73;;;13.02;;
45338;SDS011;31071;51.478;5.710;2023-04-01T14:43:30;21.48;;;13.95;;
45338;SDS011;31071;51.478;5.710;2023-04-01T14:49:24;22.60;;;15.90;;
45338;SDS011;31071;51.478;5.710;2023-04-01T14:51:55;21.52;;;15.15;;
45338;SDS011;31071;51.478;5.710;2023-04-01T14:54:31;21.05;;;15.38;;
45338;SDS011;31071;51.478;5.710;2023-04-01T14:57:09;23.50;;;16.00;;
45338;SDS011;31071;51.478;5.710;2023-04-01T14:59:40;21.48;;;15.02;;
45338;SDS011;31071;51.478;5.710;2023-04-01T15:02:33;17.33;;;13.80;;
45338;SDS011;31071;51.478;5.710;2023-04-01T15:08:24;17.02;;;13.73;;
45338;SDS011;31071;51.478;5.710;2023-04-01T15:11:04;16.42;;;12.98;;
45338;SDS011;31071;51.478;5.710;2023-04-01T15:13:48;17.70;;;12.55;;
45338;SDS011;31071;51.478;5.710;2023-04-01T15:16:58;18.75;;;13.85;;
45338;SDS011;31071;51.478;5.710;2023-04-01T15:31:04;19.02;;;14.07;;
45338;SDS011;31071;51.478;5.710;2023-04-01T15:33:52;20.00;;;15.18;;
45338;SDS011;31071;51.478;5.710;2023-04-01T15:39:22;19.75;;;14.27;;
45338;SDS011;31071;51.478;5.710;2023-04-01T15:42:16;20.42;;;15.27;;
45338;SDS011;31071;51.478;5.710;2023-04-01T15:55:19;22.77;;;17.00;;
45338;SDS011;31071;51.478;5.710;2023-04-01T16:03:40;25.92;;;17.20;;
45338;SDS011;31071;51.478;5.710;2023-04-01T16:09:04;24.90;;;17.10;;
45338;SDS011;31071;51.478;5.710;2023-04-01T16:11:44;24.95;;;17.45;;
45338;SDS011;31071;51.478;5.710;2023-04-01T16:17:07;27.27;;;18.05;;
45338;SDS011;31071;51.478;5.710;2023-04-01T16:22:40;27.58;;;18.67;;
45338;SDS011;31071;51.478;5.710;2023-04-01T16:25:19;30.65;;;19.42;;
45338;SDS011;31071;51.478;5.710;2023-04-01T16:27:54;25.15;;;17.55;;
45338;SDS011;31071;51.478;5.710;2023-04-01T16:30:37;24.10;;;17.67;;
45338;SDS011;31071;51.478;5.710;2023-04-01T16:33:11;24.80;;;18.63;;
45338;SDS011;31071;51.478;5.710;2023-04-01T16:38:52;26.65;;;17.55;;
45338;SDS011;31071;51.478;5.710;2023-04-01T16:41:46;27.83;;;18.83;;
45338;SDS011;31071;51.478;5.710;2023-04-01T16:47:22;24.48;;;17.83;;
45338;SDS011;31071;51.478;5.710;2023-04-01T16:50:05;24.67;;;17.38;;
45338;SDS011;31071;51.478;5.710;2023-04-01T16:55:20;24.98;;;17.67;;
45338;SDS011;31071;51.478;5.710;2023-04-01T17:00:26;27.02;;;17.88;;
45338;SDS011;31071;51.478;5.710;2023-04-01T17:13:51;24.63;;;17.05;;
45338;SDS011;31071;51.478;5.710;2023-04-01T17:16:44;25.35;;;16.60;;
45338;SDS011;31071;51.478;5.710;2023-04-01T17:19:36;23.13;;;15.77;;
45338;SDS011;31071;51.478;5.710;2023-04-01T17:25:27;19.80;;;14.35;;
45338;SDS011;31071;51.478;5.710;2023-04-01T17:28:05;22.05;;;15.00;;
45338;SDS011;31071;51.478;5.710;2023-04-01T17:36:16;19.33;;;14.60;;
45338;SDS011;31071;51.478;5.710;2023-04-01T17:39:16;18.83;;;14.73;;
45338;SDS011;31071;51.478;5.710;2023-04-01T17:41:54;20.88;;;14.80;;
45338;SDS011;31071;51.478;5.710;2023-04-01T17:44:32;19.80;;;14.10;;
45338;SDS011;31071;51.478;5.710;2023-04-01T17:47:17;19.42;;;15.00;;
45338;SDS011;31071;51.478;5.710;2023-04-01T17:52:37;24.13;;;17.20;;
45338;SDS011;31071;51.478;5.710;2023-04-01T17:58:20;42.22;;;30.77;;
45338;SDS011;31071;51.478;5.710;2023-04-01T18:11:30;25.13;;;16.48;;
45338;SDS011;31071;51.478;5.710;2023-04-01T18:17:03;20.67;;;14.38;;
45338;SDS011;31071;51.478;5.710;2023-04-01T18:22:22;20.75;;;13.23;;
45338;SDS011;31071;51.478;5.710;2023-04-01T18:25:01;19.23;;;13.05;;
45338;SDS011;31071;51.478;5.710;2023-04-01T18:27:41;19.45;;;13.52;;
45338;SDS011;31071;51.478;5.710;2023-04-01T18:30:18;17.33;;;12.60;;
45338;SDS011;31071;51.478;5.710;2023-04-01T18:32:52;18.45;;;12.82;;
45338;SDS011;31071;51.478;5.710;2023-04-01T18:35:34;15.38;;;10.60;;
45338;SDS011;31071;51.478;5.710;2023-04-01T18:41:10;12.68;;;8.68;;
45338;SDS011;31071;51.478;5.710;2023-04-01T18:43:58;11.05;;;7.72;;
45338;SDS011;31071;51.478;5.710;2023-04-01T18:46:54;9.27;;;6.53;;
45338;SDS011;31071;51.478;5.710;2023-04-01T18:49:43;9.65;;;6.65;;
45338;SDS011;31071;51.478;5.710;2023-04-01T18:52:19;11.38;;;7.30;;
45338;SDS011;31071;51.478;5.710;2023-04-01T18:57:27;10.65;;;7.63;;
45338;SDS011;31071;51.478;5.710;2023-04-01T19:03:02;13.57;;;8.18;;
45338;SDS011;31071;51.478;5.710;2023-04-01T19:05:36;13.32;;;8.80;;
45338;SDS011;31071;51.478;5.710;2023-04-01T19:08:17;14.48;;;9.65;;
45338;SDS011;31071;51.478;5.710;2023-04-01T19:11:07;13.57;;;9.10;;
45338;SDS011;31071;51.478;5.710;2023-04-01T19:13:52;13.27;;;8.90;;
45338;SDS011;31071;51.478;5.710;2023-04-01T19:16:43;13.50;;;8.88;;
45338;SDS011;31071;51.478;5.710;2023-04-01T19:27:51;14.07;;;9.17;;
45338;SDS011;31071;51.478;5.710;2023-04-01T19:41:24;15.93;;;10.63;;
45338;SDS011;31071;51.478;5.710;2023-04-01T19:52:33;19.35;;;13.73;;
45338;SDS011;31071;51.478;5.710;2023-04-01T19:57:38;20.30;;;13.30;;
45338;SDS011;31071;51.478;5.710;2023-04-01T20:02:52;21.23;;;14.15;;
45338;SDS011;31071;51.478;5.710;2023-04-01T20:05:51;19.85;;;13.93;;
45338;SDS011;31071;51.478;5.710;2023-04-01T20:11:44;21.20;;;15.18;;
45338;SDS011;31071;51.478;5.710;2023-04-01T20:14:33;20.42;;;13.88;;
45338;SDS011;31071;51.478;5.710;2023-04-01T20:17:16;23.30;;;14.98;;
45338;SDS011;31071;51.478;5.710;2023-04-01T20:41:26;17.70;;;13.57;;
45338;SDS011;31071;51.478;5.710;2023-04-01T20:46:48;17.40;;;12.65;;
45338;SDS011;31071;51.478;5.710;2023-04-01T20:52:24;18.10;;;12.77;;
45338;SDS011;31071;51.478;5.710;2023-04-01T21:09:31;21.70;;;16.42;;
45338;SDS011;31071;51.478;5.710;2023-04-01T21:20:34;21.23;;;15.77;;
45338;SDS011;31071;51.478;5.710;2023-04-01T21:31:15;16.67;;;12.50;;
45338;SDS011;31071;51.478;5.710;2023-04-01T21:36:25;20.27;;;14.90;;
45338;SDS011;31071;51.478;5.710;2023-04-01T21:41:47;21.75;;;14.75;;
45338;SDS011;31071;51.478;5.710;2023-04-01T21:44:27;21.38;;;15.05;;
45338;SDS011;31071;51.478;5.710;2023-04-01T21:47:23;18.95;;;13.57;;
45338;SDS011;31071;51.478;5.710;2023-04-01T22:04:46;18.60;;;13.70;;
45338;SDS011;31071;51.478;5.710;2023-04-01T22:07:35;16.50;;;12.85;;
45338;SDS011;31071;51.478;5.710;2023-04-01T22:15:18;21.02;;;15.20;;
45338;SDS011;31071;51.478;5.710;2023-04-01T22:18:13;20.35;;;14.60;;
45338;SDS011;31071;51.478;5.710;2023-04-01T22:20:48;23.35;;;15.85;;
45338;SDS011;31071;51.478;5.710;2023-04-01T22:23:34;20.20;;;15.25;;
45338;SDS011;31071;51.478;5.710;2023-04-01T22:29:28;22.17;;;15.57;;
45338;SDS011;31071;51.478;5.710;2023-04-01T22:31:39;21.13;;;15.67;;
45338;SDS011;31071;51.478;5.710;2023-04-01T22:34:56;21.08;;;15.68;;
45338;SDS011;31071;51.478;5.710;2023-04-01T22:43:10;19.10;;;14.00;;
45338;SDS011;31071;51.478;5.710;2023-04-01T22:45:59;18.02;;;13.88;;
45338;SDS011;31071;51.478;5.710;2023-04-01T22:48:47;20.67;;;14.40;;
45338;SDS011;31071;51.478;5.710;2023-04-01T22:57:13;20.95;;;14.90;;
45338;SDS011;31071;51.478;5.710;2023-04-01T22:59:59;22.08;;;15.20;;
45338;SDS011;31071;51.478;5.710;2023-04-01T23:02:46;24.05;;;16.30;;
45338;SDS011;31071;51.478;5.710;2023-04-01T23:05:31;22.52;;;15.43;;
45338;SDS011;31071;51.478;5.710;2023-04-01T23:13:20;22.98;;;15.77;;
45338;SDS011;31071;51.478;5.710;2023-04-01T23:15:54;20.30;;;14.07;;
45338;SDS011;31071;51.478;5.710;2023-04-01T23:24:00;17.70;;;13.48;;
45338;SDS011;31071;51.478;5.710;2023-04-01T23:26:38;19.60;;;14.18;;
45338;SDS011;31071;51.478;5.710;2023-04-01T23:29:17;19.38;;;14.10;;
45338;SDS011;31071;51.478;5.710;2023-04-01T23:31:44;18.35;;;13.30;;
45338;SDS011;31071;51.478;5.710;2023-04-01T23:36:40;19.67;;;13.00;;
45338;SDS011;31071;51.478;5.710;2023-04-01T23:39:20;16.83;;;12.27;;
45338;SDS011;31071;51.478;5.710;2023-04-01T23:41:53;17.17;;;12.32;;
45338;SDS011;31071;51.478;5.710;2023-04-01T23:44:21;16.08;;;11.80;;
45338;SDS011;31071;51.478;5.710;2023-04-01T23:46:49;14.45;;;11.75;;
45338;SDS011;31071;51.478;5.710;2023-04-01T23:49:18;15.77;;;11.90;;
45338;SDS011;31071;51.478;5.710;2023-04-01T23:51:51;18.08;;;11.73;;
45338;SDS011;31071;51.478;5.710;2023-04-01T23:54:26;15.15;;;10.73;;
45338;SDS011;31071;51.478;5.710;2023-04-01T23:56:59;15.95;;;11.50;;
45338;SDS011;31071;51.478;5.710;2023-04-01T23:59:31;15.52;;;11.75;;
